Rio Grande City, Texas
Current Conditions -  °F | °C
As of 8:53 PM on Saturday 25 Oct 2014 (Local Time) from KMFE Reporting Station
Clear Clear  
Wind Chill: 76°   Ceiling: Unl
Heat Index: 76°   Visibility: 10mi
Dew Point: 65°   Wind: 7mph
Humidity: 69%   Direction: 90°E
Pressure: 30.11"   Gusts: NA
Location:  26.38°N, 98.81°W
Report Text: KMFE 260153Z 09006KT 10SM CLR 24/18 A3011 RMK AO2 SLP193 T02440183
Loading
Personal Weather Stations






























Interactive Weather Map New forecast layout! Learn more

10-Day Weather Forecast

Advertisements
Track Severe Weather on mobile